createdAt,value
2017-11-13T00:01:28.738Z,98.65
2017-11-13T00:03:54.968Z,98.57
2017-11-13T00:06:21.156Z,98.58
2017-11-13T00:08:47.273Z,98.22
2017-11-13T00:11:13.325Z,98.11
2017-11-13T00:13:39.415Z,98.22
2017-11-13T00:16:05.646Z,98.32
2017-11-13T00:18:31.650Z,98.30
2017-11-13T00:20:57.847Z,98.28
2017-11-13T00:23:23.844Z,97.17
2017-11-13T00:25:53.648Z,96.81
2017-11-13T00:28:19.715Z,96.62
2017-11-13T00:30:45.893Z,96.31
2017-11-13T00:33:12.097Z,96.51
2017-11-13T00:35:38.192Z,96.17
2017-11-13T00:38:04.255Z,96.03
2017-11-13T00:40:30.367Z,95.93
2017-11-13T00:42:56.934Z,96.26
2017-11-13T00:45:22.998Z,96.23
2017-11-13T00:47:49.056Z,95.84
2017-11-13T00:50:15.265Z,96.23
2017-11-13T00:52:41.324Z,96.17
2017-11-13T00:55:07.420Z,95.85
2017-11-13T00:57:33.461Z,95.83
2017-11-13T00:59:59.552Z,95.83
2017-11-13T01:02:25.619Z,96.19
2017-11-13T01:04:58.734Z,95.88
2017-11-13T01:07:25.403Z,96.16
2017-11-13T01:09:51.507Z,96.28
2017-11-13T01:12:17.789Z,96.44
2017-11-13T01:14:43.980Z,96.54
2017-11-13T01:17:10.135Z,96.50
2017-11-13T01:19:36.244Z,97.08
2017-11-13T01:22:02.409Z,96.51
2017-11-13T01:24:28.498Z,96.19
2017-11-13T01:26:54.641Z,96.21
2017-11-13T01:29:20.689Z,96.15
2017-11-13T01:31:46.839Z,96.17
2017-11-13T01:34:12.987Z,96.38
2017-11-13T01:36:39.177Z,96.18
2017-11-13T01:39:05.550Z,96.36
2017-11-13T01:41:31.728Z,96.40
2017-11-13T01:43:57.775Z,96.64
2017-11-13T01:46:23.933Z,96.72
2017-11-13T01:48:49.958Z,96.70
2017-11-13T01:51:15.965Z,96.54
2017-11-13T01:53:42.083Z,96.54
2017-11-13T01:56:08.228Z,96.84
2017-11-13T01:58:34.347Z,96.89
2017-11-13T02:01:01.393Z,96.85
2017-11-13T02:03:27.710Z,96.98
2017-11-13T02:05:53.981Z,97.37
2017-11-13T02:08:20.114Z,96.74
2017-11-13T02:10:46.217Z,96.98
2017-11-13T02:13:12.408Z,96.91
2017-11-13T02:15:38.554Z,97.08
2017-11-13T02:18:04.804Z,97.11
2017-11-13T02:20:30.892Z,97.00
2017-11-13T02:22:57.031Z,97.00
2017-11-13T02:25:23.670Z,97.24
2017-11-13T02:27:49.869Z,96.82
2017-11-13T02:30:15.975Z,97.04
2017-11-13T02:32:42.250Z,96.95
2017-11-13T02:35:08.402Z,97.07
2017-11-13T02:37:34.488Z,97.37
2017-11-13T02:40:00.664Z,97.54
2017-11-13T02:42:26.774Z,97.70
2017-11-13T02:44:53.017Z,97.41
2017-11-13T02:47:19.199Z,97.70
2017-11-13T02:49:45.357Z,97.48
2017-11-13T02:52:11.574Z,97.34
2017-11-13T02:54:38.069Z,97.50
2017-11-13T02:57:04.320Z,97.58
2017-11-13T02:59:30.469Z,97.46
2017-11-13T03:01:56.576Z,97.64
2017-11-13T03:04:22.604Z,97.75
2017-11-13T03:06:48.680Z,97.88
2017-11-13T03:09:14.883Z,97.83
2017-11-13T03:11:40.984Z,97.86
2017-11-13T03:14:07.467Z,97.87
2017-11-13T03:16:33.589Z,98.14
2017-11-13T03:18:59.632Z,98.03
2017-11-13T03:21:25.809Z,97.66
2017-11-13T03:23:51.950Z,97.64
2017-11-13T03:26:18.001Z,97.66
2017-11-13T03:28:44.015Z,97.69
2017-11-13T03:31:10.219Z,97.74
2017-11-13T03:33:36.305Z,97.49
2017-11-13T03:36:02.445Z,97.12
2017-11-13T03:38:28.489Z,97.21
2017-11-13T03:40:54.489Z,97.48
2017-11-13T03:43:20.680Z,97.53
2017-11-13T03:45:46.777Z,97.37
2017-11-13T03:48:12.870Z,97.10
2017-11-13T03:50:38.967Z,97.35
2017-11-13T03:53:05.134Z,97.24
2017-11-13T03:55:31.221Z,97.25
2017-11-13T03:57:57.312Z,97.26
2017-11-13T04:00:23.801Z,97.27
2017-11-13T04:02:50.018Z,97.41
2017-11-13T04:05:16.163Z,97.50
2017-11-13T04:07:42.271Z,97.47
2017-11-13T04:10:08.319Z,97.72
2017-11-13T04:12:34.580Z,97.69
2017-11-13T04:15:00.903Z,97.77
2017-11-13T04:17:26.941Z,97.70
2017-11-13T04:19:53.193Z,97.72
2017-11-13T04:22:19.487Z,97.61
2017-11-13T04:24:45.707Z,97.78
2017-11-13T04:27:11.779Z,97.88
2017-11-13T04:29:37.824Z,97.95
2017-11-13T04:32:03.959Z,98.07
2017-11-13T04:34:30.098Z,98.06
2017-11-13T04:36:56.219Z,98.06
2017-11-13T04:39:22.294Z,97.97
2017-11-13T04:41:48.337Z,98.00
2017-11-13T04:44:14.745Z,98.02
2017-11-13T04:46:40.819Z,97.91
2017-11-13T04:49:06.890Z,98.04
2017-11-13T04:51:33.144Z,97.98
2017-11-13T04:53:59.244Z,98.01
2017-11-13T04:56:25.320Z,97.91
2017-11-13T04:58:51.401Z,97.92
2017-11-13T05:01:17.487Z,97.95
2017-11-13T05:03:43.517Z,98.07
2017-11-13T05:06:09.962Z,98.29
2017-11-13T05:08:36.194Z,98.04
2017-11-13T05:11:02.518Z,98.17
2017-11-13T05:13:28.672Z,98.15
2017-11-13T05:15:54.835Z,98.29
2017-11-13T05:18:20.961Z,98.37
2017-11-13T05:20:47.405Z,98.48
2017-11-13T05:23:13.712Z,98.43
2017-11-13T05:25:39.914Z,98.41
2017-11-13T05:28:06.156Z,98.50
2017-11-13T05:30:32.213Z,98.62
2017-11-13T05:32:58.267Z,98.67
2017-11-13T05:35:24.905Z,98.68
2017-11-13T05:37:51.054Z,98.89
2017-11-13T05:40:17.107Z,98.99
2017-11-13T05:42:43.285Z,98.94
2017-11-13T05:45:09.385Z,98.87
2017-11-13T05:47:35.434Z,98.80
2017-11-13T05:50:01.494Z,98.73
2017-11-13T05:52:27.555Z,98.83
2017-11-13T05:54:53.663Z,98.80
2017-11-13T05:57:19.799Z,98.76
2017-11-13T05:59:45.850Z,98.81
2017-11-13T06:02:11.906Z,98.85
2017-11-13T06:04:38.048Z,98.92
2017-11-13T06:07:04.094Z,98.97
2017-11-13T06:09:30.230Z,99.08
2017-11-13T06:11:56.436Z,99.19
2017-11-13T06:14:22.443Z,99.16
2017-11-13T06:16:48.483Z,99.09
2017-11-13T06:19:14.825Z,99.02
2017-11-13T06:21:40.943Z,99.08
2017-11-13T06:24:07.124Z,99.13
2017-11-13T06:26:33.223Z,99.18
2017-11-13T06:28:59.456Z,99.23
2017-11-13T06:31:25.765Z,99.26
2017-11-13T06:33:51.927Z,99.39
2017-11-13T06:36:18.130Z,99.24
2017-11-13T06:38:44.322Z,99.28
2017-11-13T06:41:10.683Z,99.24
2017-11-13T06:43:36.838Z,99.36
2017-11-13T06:46:03.043Z,99.29
2017-11-13T06:48:29.163Z,99.28
2017-11-13T06:50:55.249Z,99.29
2017-11-13T06:53:21.390Z,99.36
2017-11-13T06:55:47.476Z,99.31
2017-11-13T06:58:13.568Z,99.34
2017-11-13T07:00:39.638Z,99.30
2017-11-13T07:03:05.707Z,99.28
2017-11-13T07:05:31.849Z,99.22
2017-11-13T07:07:58.115Z,99.20
2017-11-13T07:10:24.285Z,99.13
2017-11-13T07:12:50.384Z,99.12
2017-11-13T07:15:16.499Z,99.06
2017-11-13T07:17:42.701Z,98.97
2017-11-13T07:20:08.857Z,98.95
2017-11-13T07:22:35.101Z,98.90
2017-11-13T07:25:01.577Z,98.69
2017-11-13T07:27:27.727Z,98.58
2017-11-13T07:29:53.815Z,98.56
2017-11-13T07:32:20.006Z,98.50
2017-11-13T07:34:46.166Z,98.61
2017-11-13T07:37:12.354Z,98.54
2017-11-13T07:39:38.642Z,98.36
2017-11-13T07:42:04.969Z,98.21
2017-11-13T07:44:31.174Z,98.24
2017-11-13T07:46:57.308Z,98.37
2017-11-13T07:49:23.452Z,98.26
2017-11-13T07:51:49.580Z,98.02
2017-11-13T07:54:15.714Z,97.40
2017-11-13T07:56:41.742Z,97.41
2017-11-13T07:59:07.795Z,97.38
2017-11-13T08:01:33.842Z,97.25
2017-11-13T08:03:59.892Z,96.72
2017-11-13T08:06:26.005Z,96.77
2017-11-13T08:08:52.330Z,96.14
2017-11-13T08:11:18.467Z,96.57
2017-11-13T08:13:44.557Z,96.80
2017-11-13T08:16:10.889Z,96.54
2017-11-13T08:18:36.931Z,95.74
2017-11-13T08:21:04.105Z,95.18
2017-11-13T08:23:30.760Z,94.86
2017-11-13T08:25:56.817Z,94.31
2017-11-13T08:28:23.007Z,94.20
2017-11-13T08:30:49.114Z,93.64
2017-11-13T08:33:15.513Z,93.03
2017-11-13T08:35:41.594Z,92.46
2017-11-13T08:38:07.713Z,92.47
2017-11-13T08:40:33.774Z,92.53
2017-11-13T08:42:59.870Z,92.57
2017-11-13T08:45:25.977Z,91.54
2017-11-13T08:47:52.146Z,92.47
2017-11-13T08:50:18.315Z,92.44
2017-11-13T08:52:51.339Z,92.40
2017-11-13T08:55:17.444Z,91.95
2017-11-13T08:57:43.620Z,93.43
2017-11-13T09:00:09.826Z,92.88
2017-11-13T09:02:35.853Z,92.99
2017-11-13T09:05:01.997Z,91.27
2017-11-13T09:07:28.249Z,90.25
2017-11-13T09:09:54.334Z,90.87
2017-11-13T09:12:20.381Z,92.11
2017-11-13T09:14:53.667Z,91.86
2017-11-13T09:17:19.688Z,91.75
2017-11-13T09:19:45.762Z,90.87
2017-11-13T09:22:12.298Z,91.30
2017-11-13T09:24:38.362Z,89.40
2017-11-13T09:27:04.481Z,89.53
2017-11-13T09:29:30.655Z,88.46
2017-11-13T09:31:56.765Z,87.38
2017-11-13T09:34:22.965Z,88.64
2017-11-13T09:36:49.043Z,88.86
2017-11-13T09:39:15.147Z,88.31
2017-11-13T09:41:41.300Z,90.07
2017-11-13T09:44:07.426Z,89.28
2017-11-13T09:46:33.630Z,89.08
2017-11-13T09:48:59.707Z,88.53
2017-11-13T09:51:25.792Z,88.89
2017-11-13T09:53:52.030Z,88.08
2017-11-13T09:56:18.316Z,87.34
2017-11-13T09:58:44.600Z,86.96
2017-11-13T10:01:10.740Z,85.30
2017-11-13T10:03:36.859Z,84.25
2017-11-13T10:06:03.125Z,83.92
2017-11-13T10:08:29.282Z,84.90
2017-11-13T10:10:55.575Z,82.52
2017-11-13T10:13:21.914Z,83.62
2017-11-13T10:15:48.102Z,81.70
2017-11-13T10:18:14.240Z,80.11
2017-11-13T10:20:40.386Z,81.26
2017-11-13T10:23:06.535Z,83.17
2017-11-13T10:25:32.764Z,83.01
2017-11-13T10:27:58.894Z,84.25
2017-11-13T10:30:25.437Z,85.05
2017-11-13T10:32:51.636Z,83.41
2017-11-13T10:35:17.772Z,83.64
2017-11-13T10:37:43.821Z,83.11
2017-11-13T10:40:09.858Z,82.93
2017-11-13T10:42:36.420Z,79.67
2017-11-13T10:45:02.588Z,78.57
2017-11-13T10:47:28.762Z,78.13
2017-11-13T10:49:55.297Z,76.08
2017-11-13T10:52:21.413Z,74.94
2017-11-13T10:54:47.564Z,73.75
2017-11-13T10:57:13.931Z,75.71
2017-11-13T10:59:40.164Z,72.27
2017-11-13T11:02:06.306Z,74.46
2017-11-13T11:04:32.620Z,73.85
2017-11-13T11:06:58.858Z,75.10
2017-11-13T11:09:24.950Z,76.52
2017-11-13T11:11:51.491Z,75.19
2017-11-13T11:14:18.462Z,75.65
2017-11-13T11:16:50.553Z,74.89
2017-11-13T11:19:22.682Z,74.35
2017-11-13T11:24:55.973Z,72.35
2017-11-13T11:27:22.110Z,72.04
2017-11-13T11:29:59.247Z,72.02
2017-11-13T11:32:36.234Z,73.06
2017-11-13T11:35:03.294Z,73.97
2017-11-13T11:37:33.568Z,74.83
2017-11-13T11:39:59.914Z,74.70
2017-11-13T11:42:26.106Z,75.43
2017-11-13T11:44:53.056Z,75.02
2017-11-13T11:47:20.337Z,76.48
2017-11-13T11:49:48.546Z,76.49
2017-11-13T11:52:14.709Z,76.13
2017-11-13T11:54:46.755Z,76.40
2017-11-13T11:57:13.817Z,76.03
2017-11-13T11:59:39.903Z,75.70
2017-11-13T12:02:06.079Z,75.30
2017-11-13T12:04:32.387Z,75.86
2017-11-13T12:06:58.533Z,75.73
2017-11-13T12:09:24.881Z,76.51
2017-11-13T12:11:51.273Z,75.99
2017-11-13T12:14:17.395Z,77.06
2017-11-13T12:16:43.470Z,75.96
2017-11-13T12:19:09.749Z,75.38
2017-11-13T12:21:35.969Z,75.53
2017-11-13T12:24:02.225Z,77.24
2017-11-13T12:26:28.351Z,76.83
2017-11-13T12:28:54.469Z,77.43
2017-11-13T12:31:20.625Z,76.45
2017-11-13T12:33:47.202Z,75.86
2017-11-13T12:36:13.489Z,75.48
2017-11-13T12:38:39.701Z,75.74
2017-11-13T12:41:05.829Z,76.10
2017-11-13T12:43:31.991Z,75.54
2017-11-13T12:45:58.185Z,75.94
2017-11-13T12:48:24.372Z,74.23
2017-11-13T12:50:50.865Z,73.71
2017-11-13T12:53:17.191Z,72.99
2017-11-13T12:55:43.323Z,72.89
2017-11-13T12:58:09.547Z,74.05
2017-11-13T13:00:35.746Z,73.50
2017-11-13T13:03:02.568Z,71.97
2017-11-13T13:05:28.595Z,71.11
2017-11-13T13:07:54.706Z,68.06
2017-11-13T13:10:21.017Z,70.12
2017-11-13T13:12:47.106Z,69.46
2017-11-13T13:15:13.218Z,67.79
2017-11-13T13:17:40.582Z,69.84
2017-11-13T13:20:06.766Z,71.46
2017-11-13T13:22:33.095Z,71.72
2017-11-13T13:25:00.469Z,70.18
2017-11-13T13:27:26.686Z,68.73
2017-11-13T13:29:52.731Z,66.44
2017-11-13T13:32:19.651Z,67.22
2017-11-13T13:34:45.710Z,68.97
2017-11-13T13:37:11.800Z,69.95
2017-11-13T13:39:38.088Z,68.71
2017-11-13T13:42:16.394Z,68.35
2017-11-13T13:44:42.514Z,70.63
2017-11-13T13:47:08.876Z,70.60
2017-11-13T13:49:34.954Z,70.98
2017-11-13T13:52:01.068Z,70.74
2017-11-13T13:54:27.211Z,70.13
2017-11-13T13:56:53.466Z,71.07
2017-11-13T13:59:20.026Z,70.44
2017-11-13T14:01:46.100Z,70.24
2017-11-13T14:04:12.314Z,70.39
2017-11-13T14:06:39.090Z,70.39
2017-11-13T14:09:05.511Z,70.54
2017-11-13T14:11:32.834Z,71.17
2017-11-13T14:13:59.190Z,72.86
2017-11-13T14:16:25.359Z,71.88
2017-11-13T14:18:51.579Z,71.79
2017-11-13T14:21:18.090Z,73.62
2017-11-13T14:23:44.403Z,73.19
2017-11-13T14:26:10.455Z,73.52
2017-11-13T14:28:36.636Z,74.17
2017-11-13T14:31:02.755Z,73.84
2017-11-13T14:33:29.201Z,74.35
2017-11-13T14:35:55.421Z,75.03
2017-11-13T14:38:21.545Z,75.79
2017-11-13T14:40:54.436Z,76.24
2017-11-13T14:43:20.567Z,76.00
2017-11-13T14:45:46.765Z,76.53
2017-11-13T14:48:12.858Z,76.93
2017-11-13T14:50:39.291Z,77.76
2017-11-13T14:53:05.753Z,77.44
2017-11-13T14:55:31.895Z,78.63
2017-11-13T14:57:58.149Z,78.22
2017-11-13T15:00:24.267Z,78.52
2017-11-13T15:02:52.619Z,77.45
2017-11-13T15:05:18.901Z,77.59
2017-11-13T15:07:45.076Z,77.44
2017-11-13T15:12:43.339Z,77.73
2017-11-13T15:15:09.816Z,77.67
2017-11-13T15:17:35.966Z,78.37
2017-11-13T15:20:02.293Z,78.33
2017-11-13T15:22:28.601Z,79.02
2017-11-13T15:24:57.912Z,79.42
2017-11-13T15:27:24.208Z,80.04
2017-11-13T15:29:50.379Z,80.21
2017-11-13T15:32:16.584Z,80.05
2017-11-13T15:34:42.836Z,80.40
2017-11-13T15:37:11.984Z,80.77
2017-11-13T15:39:38.943Z,81.28
2017-11-13T15:42:05.900Z,81.52
2017-11-13T15:44:31.975Z,81.68
2017-11-13T15:46:58.288Z,81.85
2017-11-13T15:49:24.500Z,82.05
2017-11-13T15:51:50.559Z,82.55
2017-11-13T15:54:16.941Z,82.58
2017-11-13T15:56:43.453Z,82.94
2017-11-13T15:59:09.843Z,82.88
2017-11-13T16:01:36.597Z,82.86
2017-11-13T16:04:03.238Z,83.21
2017-11-13T16:06:30.260Z,83.35
2017-11-13T16:08:57.485Z,83.45
2017-11-13T16:11:25.056Z,83.52
2017-11-13T16:13:51.548Z,83.58
2017-11-13T16:16:18.124Z,83.76
2017-11-13T16:18:44.748Z,84.26
2017-11-13T16:21:11.296Z,84.32
2017-11-13T16:23:37.803Z,84.38
2017-11-13T16:26:04.410Z,85.30
2017-11-13T16:28:30.593Z,85.59
2017-11-13T16:30:58.772Z,86.12
2017-11-13T16:33:25.130Z,85.82
2017-11-13T16:35:51.194Z,86.32
2017-11-13T16:38:17.312Z,86.46
2017-11-13T16:40:43.569Z,86.39
2017-11-13T16:43:09.647Z,86.98
2017-11-13T16:45:35.815Z,87.09
2017-11-13T16:48:02.341Z,86.77
2017-11-13T16:50:28.591Z,86.92
2017-11-13T16:52:54.609Z,87.31
2017-11-13T16:55:20.861Z,87.26
2017-11-13T16:57:46.975Z,87.42
2017-11-13T17:00:13.063Z,87.45
2017-11-13T17:02:39.616Z,87.63
2017-11-13T17:05:05.713Z,88.27
2017-11-13T17:07:31.801Z,88.16
2017-11-13T17:09:58.019Z,88.44
2017-11-13T17:12:24.087Z,88.45
2017-11-13T17:14:50.299Z,88.34
2017-11-13T17:17:16.869Z,88.35
2017-11-13T17:19:42.932Z,88.17
2017-11-13T17:22:09.019Z,88.12
2017-11-13T17:24:35.447Z,88.07
2017-11-13T17:27:01.528Z,88.58
2017-11-13T17:29:27.555Z,88.53
2017-11-13T17:31:53.715Z,88.47
2017-11-13T17:34:19.815Z,88.34
2017-11-13T17:36:46.522Z,88.65
2017-11-13T17:39:17.280Z,88.24
2017-11-13T17:41:43.506Z,88.20
2017-11-13T17:44:12.960Z,88.21
2017-11-13T17:46:43.087Z,87.93
2017-11-13T17:49:09.652Z,87.90
2017-11-13T17:51:36.162Z,88.32
2017-11-13T17:54:02.791Z,88.41
2017-11-13T17:56:29.662Z,88.45
2017-11-13T17:58:56.109Z,88.50
2017-11-13T18:01:22.687Z,88.79
2017-11-13T18:03:50.123Z,88.86
2017-11-13T18:06:16.883Z,89.45
2017-11-13T18:08:44.559Z,89.76
2017-11-13T18:11:10.897Z,90.37
2017-11-13T18:13:37.478Z,90.72
2017-11-13T18:16:05.123Z,90.89
2017-11-13T18:18:32.432Z,91.26
2017-11-13T18:21:00.854Z,91.76
2017-11-13T18:23:27.288Z,92.21
2017-11-13T18:25:54.946Z,92.53
2017-11-13T18:30:52.938Z,92.70
2017-11-13T18:33:19.478Z,92.87
2017-11-13T18:35:48.903Z,92.55
2017-11-13T18:38:15.815Z,92.32
2017-11-13T18:40:42.383Z,91.98
2017-11-13T18:43:10.025Z,91.72
2017-11-13T18:45:37.376Z,91.43
2017-11-13T18:48:04.078Z,90.97
2017-11-13T18:50:30.567Z,90.68
2017-11-13T18:52:57.138Z,90.46
2017-11-13T18:55:23.599Z,90.18
2017-11-13T18:57:50.860Z,89.99
2017-11-13T19:00:17.459Z,89.92
2017-11-13T19:02:52.809Z,89.80
2017-11-13T19:05:21.596Z,89.51
2017-11-13T19:07:48.840Z,89.25
2017-11-13T19:10:15.221Z,89.12
2017-11-13T19:12:41.726Z,89.06
2017-11-13T19:15:08.294Z,89.10
2017-11-13T19:17:34.828Z,88.93
2017-11-13T19:20:01.350Z,88.88
2017-11-13T19:22:28.038Z,88.74
2017-11-13T19:24:57.078Z,88.91
2017-11-13T19:27:25.505Z,88.93
2017-11-13T19:29:52.762Z,89.12
2017-11-13T19:32:20.218Z,89.72
2017-11-13T19:34:47.217Z,90.40
2017-11-13T19:37:13.756Z,90.82
2017-11-13T19:39:40.063Z,91.15
2017-11-13T19:42:06.696Z,91.69
2017-11-13T19:44:32.929Z,92.23
2017-11-13T19:47:00.488Z,92.67
2017-11-13T19:49:27.769Z,93.12
2017-11-13T19:51:55.237Z,92.98
2017-11-13T19:54:22.969Z,92.93
2017-11-13T19:56:59.856Z,93.10
2017-11-13T19:59:26.402Z,92.98
2017-11-13T20:01:53.148Z,93.26
2017-11-13T20:04:19.431Z,93.61
2017-11-13T20:06:45.966Z,93.46
2017-11-13T20:09:12.559Z,93.60
2017-11-13T20:11:39.450Z,93.61
2017-11-13T20:14:05.944Z,93.87
2017-11-13T20:16:32.336Z,93.83
2017-11-13T20:19:05.685Z,93.54
2017-11-13T20:21:32.277Z,93.59
2017-11-13T20:23:58.893Z,93.33
2017-11-13T20:26:25.316Z,93.66
2017-11-13T20:28:51.734Z,93.64
2017-11-13T20:31:18.341Z,93.27
2017-11-13T20:33:44.643Z,93.29
2017-11-13T20:36:10.815Z,93.95
2017-11-13T20:38:37.099Z,94.23
2017-11-13T20:41:03.622Z,93.98
2017-11-13T20:43:29.978Z,93.74
2017-11-13T20:45:56.417Z,94.25
2017-11-13T20:48:23.254Z,94.32
2017-11-13T20:50:49.662Z,94.39
2017-11-13T20:53:16.303Z,94.14
2017-11-13T20:55:42.924Z,94.08
2017-11-13T20:58:09.276Z,93.91
2017-11-13T21:00:35.598Z,94.03
2017-11-13T21:03:02.323Z,93.95
2017-11-13T21:05:28.614Z,94.09
2017-11-13T21:07:55.155Z,93.93
2017-11-13T21:10:21.636Z,93.94
2017-11-13T21:12:47.996Z,94.04
2017-11-13T21:15:14.294Z,94.15
2017-11-13T21:17:40.653Z,94.23
2017-11-13T21:20:07.106Z,94.46
2017-11-13T21:22:33.403Z,94.55
2017-11-13T21:24:59.971Z,94.82
2017-11-13T21:27:26.369Z,94.69
2017-11-13T21:29:52.771Z,94.87
2017-11-13T21:32:19.380Z,95.10
2017-11-13T21:34:45.747Z,95.08
2017-11-13T21:37:12.402Z,95.37
2017-11-13T21:39:40.295Z,95.55
2017-11-13T21:42:06.649Z,95.44
2017-11-13T21:44:33.448Z,95.29
2017-11-13T21:46:59.987Z,95.35
2017-11-13T21:49:28.497Z,95.06
2017-11-13T21:51:54.787Z,95.13
2017-11-13T21:54:21.249Z,95.08
2017-11-13T21:56:47.699Z,95.12
2017-11-13T21:59:14.215Z,95.04
2017-11-13T22:01:40.741Z,94.89
2017-11-13T22:04:09.044Z,94.90
2017-11-13T22:06:35.418Z,94.84
2017-11-13T22:09:01.750Z,94.98
2017-11-13T22:11:28.181Z,94.95
2017-11-13T22:13:54.747Z,94.90
2017-11-13T22:16:21.182Z,94.89
2017-11-13T22:18:47.865Z,95.00
2017-11-13T22:21:14.201Z,94.82
2017-11-13T22:23:41.034Z,94.79
2017-11-13T22:26:07.587Z,95.05
2017-11-13T22:28:34.228Z,95.27
2017-11-13T22:31:00.752Z,95.29
2017-11-13T22:33:27.095Z,95.39
2017-11-13T22:35:53.578Z,95.44
2017-11-13T22:38:20.128Z,95.31
2017-11-13T22:40:46.418Z,95.28
2017-11-13T22:43:12.938Z,95.44
2017-11-13T22:45:39.497Z,95.55
2017-11-13T22:48:06.085Z,95.64
2017-11-13T22:50:32.071Z,95.74
2017-11-13T22:52:58.352Z,95.75
2017-11-13T22:55:24.359Z,95.83
2017-11-13T22:57:50.460Z,95.69
2017-11-13T23:00:17.013Z,95.51
2017-11-13T23:02:43.118Z,95.53
2017-11-13T23:05:09.147Z,95.57
2017-11-13T23:07:35.422Z,95.60
2017-11-13T23:10:01.494Z,95.56
2017-11-13T23:12:27.550Z,95.74
2017-11-13T23:14:53.835Z,95.93
2017-11-13T23:17:19.878Z,96.01
2017-11-13T23:19:46.025Z,96.06
2017-11-13T23:22:12.148Z,95.90
2017-11-13T23:24:38.337Z,96.06
2017-11-13T23:27:04.413Z,95.81
2017-11-13T23:29:30.465Z,95.71
2017-11-13T23:31:56.544Z,95.96
2017-11-13T23:34:22.659Z,95.97
2017-11-13T23:36:48.806Z,96.35
2017-11-13T23:39:15.162Z,96.37
2017-11-13T23:41:41.267Z,96.51
2017-11-13T23:44:07.527Z,96.60
2017-11-13T23:46:33.812Z,96.84
2017-11-13T23:48:59.927Z,96.99
2017-11-13T23:51:26.076Z,97.13
2017-11-13T23:53:52.210Z,97.26
2017-11-13T23:56:18.272Z,97.29
2017-11-13T23:58:44.459Z,97.35
